sensor_id;sensor_type;location;lat;lon;timestamp;P1;durP1;ratioP1;P2;durP2;ratioP2
52878;SDS011;38747;53.140;6.498;2023-10-09T00:00:23;7.10;;;2.20;;
52878;SDS011;38747;53.140;6.498;2023-10-09T00:03:15;6.30;;;2.00;;
52878;SDS011;38747;53.140;6.498;2023-10-09T00:05:44;8.82;;;1.88;;
52878;SDS011;38747;53.140;6.498;2023-10-09T00:08:09;7.40;;;2.15;;
52878;SDS011;38747;53.140;6.498;2023-10-09T00:10:36;8.80;;;2.47;;
52878;SDS011;38747;53.140;6.498;2023-10-09T00:13:14;7.88;;;2.50;;
52878;SDS011;38747;53.140;6.498;2023-10-09T00:15:39;8.07;;;2.13;;
52878;SDS011;38747;53.140;6.498;2023-10-09T00:18:06;8.63;;;2.70;;
52878;SDS011;38747;53.140;6.498;2023-10-09T00:20:37;8.90;;;2.47;;
52878;SDS011;38747;53.140;6.498;2023-10-09T00:23:09;8.60;;;2.00;;
52878;SDS011;38747;53.140;6.498;2023-10-09T00:25:50;8.52;;;2.28;;
52878;SDS011;38747;53.140;6.498;2023-10-09T00:28:33;8.55;;;2.17;;
52878;SDS011;38747;53.140;6.498;2023-10-09T00:31:00;10.20;;;2.60;;
52878;SDS011;38747;53.140;6.498;2023-10-09T00:33:31;9.73;;;2.20;;
52878;SDS011;38747;53.140;6.498;2023-10-09T00:36:01;8.82;;;2.50;;
52878;SDS011;38747;53.140;6.498;2023-10-09T00:38:34;8.65;;;2.50;;
52878;SDS011;38747;53.140;6.498;2023-10-09T00:41:11;8.82;;;2.60;;
52878;SDS011;38747;53.140;6.498;2023-10-09T00:43:44;8.10;;;2.50;;
52878;SDS011;38747;53.140;6.498;2023-10-09T00:46:10;8.17;;;2.87;;
52878;SDS011;38747;53.140;6.498;2023-10-09T00:48:45;9.52;;;2.58;;
52878;SDS011;38747;53.140;6.498;2023-10-09T00:51:13;9.82;;;3.72;;
52878;SDS011;38747;53.140;6.498;2023-10-09T00:53:57;9.10;;;3.25;;
52878;SDS011;38747;53.140;6.498;2023-10-09T00:56:24;14.00;;;3.27;;
52878;SDS011;38747;53.140;6.498;2023-10-09T00:58:51;10.20;;;3.28;;
52878;SDS011;38747;53.140;6.498;2023-10-09T01:01:31;9.52;;;3.45;;
52878;SDS011;38747;53.140;6.498;2023-10-09T01:04:02;13.27;;;3.35;;
52878;SDS011;38747;53.140;6.498;2023-10-09T01:06:54;10.65;;;4.00;;
52878;SDS011;38747;53.140;6.498;2023-10-09T01:09:35;12.60;;;3.63;;
52878;SDS011;38747;53.140;6.498;2023-10-09T01:12:07;12.38;;;4.30;;
52878;SDS011;38747;53.140;6.498;2023-10-09T01:14:41;14.40;;;4.80;;
52878;SDS011;38747;53.140;6.498;2023-10-09T01:17:08;12.60;;;4.10;;
52878;SDS011;38747;53.140;6.498;2023-10-09T01:19:34;14.15;;;4.65;;
52878;SDS011;38747;53.140;6.498;2023-10-09T01:22:00;13.67;;;4.90;;
52878;SDS011;38747;53.140;6.498;2023-10-09T01:24:47;14.15;;;4.45;;
52878;SDS011;38747;53.140;6.498;2023-10-09T01:27:15;17.58;;;4.43;;
52878;SDS011;38747;53.140;6.498;2023-10-09T01:29:41;14.90;;;4.63;;
52878;SDS011;38747;53.140;6.498;2023-10-09T01:32:07;15.88;;;4.72;;
52878;SDS011;38747;53.140;6.498;2023-10-09T01:34:41;16.80;;;5.15;;
52878;SDS011;38747;53.140;6.498;2023-10-09T01:37:18;19.33;;;5.80;;
52878;SDS011;38747;53.140;6.498;2023-10-09T01:39:52;15.40;;;5.40;;
52878;SDS011;38747;53.140;6.498;2023-10-09T01:42:23;14.43;;;5.00;;
52878;SDS011;38747;53.140;6.498;2023-10-09T01:45:09;14.25;;;5.60;;
52878;SDS011;38747;53.140;6.498;2023-10-09T01:47:40;18.75;;;5.70;;
52878;SDS011;38747;53.140;6.498;2023-10-09T01:50:11;17.77;;;5.55;;
52878;SDS011;38747;53.140;6.498;2023-10-09T01:52:45;16.70;;;5.65;;
52878;SDS011;38747;53.140;6.498;2023-10-09T01:55:10;14.03;;;5.50;;
52878;SDS011;38747;53.140;6.498;2023-10-09T01:57:59;18.75;;;5.93;;
52878;SDS011;38747;53.140;6.498;2023-10-09T02:00:30;13.40;;;5.30;;
52878;SDS011;38747;53.140;6.498;2023-10-09T02:03:07;17.60;;;5.40;;
52878;SDS011;38747;53.140;6.498;2023-10-09T02:05:39;17.35;;;5.30;;
52878;SDS011;38747;53.140;6.498;2023-10-09T02:08:06;18.17;;;5.70;;
52878;SDS011;38747;53.140;6.498;2023-10-09T02:10:38;17.45;;;5.55;;
52878;SDS011;38747;53.140;6.498;2023-10-09T02:13:05;14.93;;;5.07;;
52878;SDS011;38747;53.140;6.498;2023-10-09T02:15:32;15.23;;;5.87;;
52878;SDS011;38747;53.140;6.498;2023-10-09T02:18:08;15.80;;;5.78;;
52878;SDS011;38747;53.140;6.498;2023-10-09T02:20:47;15.88;;;5.90;;
52878;SDS011;38747;53.140;6.498;2023-10-09T02:23:26;18.75;;;6.80;;
52878;SDS011;38747;53.140;6.498;2023-10-09T02:26:04;19.58;;;6.72;;
52878;SDS011;38747;53.140;6.498;2023-10-09T02:28:34;18.23;;;6.70;;
52878;SDS011;38747;53.140;6.498;2023-10-09T02:31:01;17.45;;;6.93;;
52878;SDS011;38747;53.140;6.498;2023-10-09T02:33:35;18.63;;;6.82;;
52878;SDS011;38747;53.140;6.498;2023-10-09T02:36:08;16.88;;;6.68;;
52878;SDS011;38747;53.140;6.498;2023-10-09T02:38:34;19.05;;;6.95;;
52878;SDS011;38747;53.140;6.498;2023-10-09T02:41:05;17.60;;;7.00;;
52878;SDS011;38747;53.140;6.498;2023-10-09T02:43:31;18.67;;;7.28;;
52878;SDS011;38747;53.140;6.498;2023-10-09T02:46:14;17.92;;;7.15;;
52878;SDS011;38747;53.140;6.498;2023-10-09T02:48:48;18.53;;;7.37;;
52878;SDS011;38747;53.140;6.498;2023-10-09T02:51:18;19.33;;;7.55;;
52878;SDS011;38747;53.140;6.498;2023-10-09T02:54:01;21.45;;;7.75;;
52878;SDS011;38747;53.140;6.498;2023-10-09T02:56:46;20.55;;;7.75;;
52878;SDS011;38747;53.140;6.498;2023-10-09T02:59:20;21.00;;;8.52;;
52878;SDS011;38747;53.140;6.498;2023-10-09T03:01:47;20.07;;;8.30;;
52878;SDS011;38747;53.140;6.498;2023-10-09T03:04:13;23.63;;;8.73;;
52878;SDS011;38747;53.140;6.498;2023-10-09T03:06:39;19.05;;;7.97;;
52878;SDS011;38747;53.140;6.498;2023-10-09T03:09:15;21.40;;;8.40;;
52878;SDS011;38747;53.140;6.498;2023-10-09T03:11:51;21.17;;;9.15;;
52878;SDS011;38747;53.140;6.498;2023-10-09T03:14:18;19.87;;;7.30;;
52878;SDS011;38747;53.140;6.498;2023-10-09T03:16:45;20.00;;;7.68;;
52878;SDS011;38747;53.140;6.498;2023-10-09T03:19:14;22.52;;;8.98;;
52878;SDS011;38747;53.140;6.498;2023-10-09T03:21:40;21.35;;;8.43;;
52878;SDS011;38747;53.140;6.498;2023-10-09T03:24:06;27.25;;;10.50;;
52878;SDS011;38747;53.140;6.498;2023-10-09T03:26:33;25.03;;;9.77;;
52878;SDS011;38747;53.140;6.498;2023-10-09T03:28:59;22.65;;;9.00;;
52878;SDS011;38747;53.140;6.498;2023-10-09T03:31:32;22.30;;;9.07;;
52878;SDS011;38747;53.140;6.498;2023-10-09T03:33:59;25.73;;;9.70;;
52878;SDS011;38747;53.140;6.498;2023-10-09T03:36:25;26.20;;;9.50;;
52878;SDS011;38747;53.140;6.498;2023-10-09T03:38:54;23.03;;;9.50;;
52878;SDS011;38747;53.140;6.498;2023-10-09T03:41:23;25.73;;;9.50;;
52878;SDS011;38747;53.140;6.498;2023-10-09T03:43:51;24.67;;;9.43;;
52878;SDS011;38747;53.140;6.498;2023-10-09T03:46:17;27.95;;;9.75;;
52878;SDS011;38747;53.140;6.498;2023-10-09T03:48:47;25.38;;;10.40;;
52878;SDS011;38747;53.140;6.498;2023-10-09T03:51:13;25.77;;;9.40;;
52878;SDS011;38747;53.140;6.498;2023-10-09T03:53:46;26.65;;;9.73;;
52878;SDS011;38747;53.140;6.498;2023-10-09T03:56:13;23.63;;;9.88;;
52878;SDS011;38747;53.140;6.498;2023-10-09T03:58:42;28.55;;;10.45;;
52878;SDS011;38747;53.140;6.498;2023-10-09T04:01:10;28.25;;;10.60;;
52878;SDS011;38747;53.140;6.498;2023-10-09T04:03:56;23.87;;;9.13;;
52878;SDS011;38747;53.140;6.498;2023-10-09T04:06:26;26.05;;;9.85;;
52878;SDS011;38747;53.140;6.498;2023-10-09T04:08:56;25.67;;;10.35;;
52878;SDS011;38747;53.140;6.498;2023-10-09T04:11:23;24.77;;;9.85;;
52878;SDS011;38747;53.140;6.498;2023-10-09T04:13:50;24.17;;;9.50;;
52878;SDS011;38747;53.140;6.498;2023-10-09T04:16:17;25.07;;;9.37;;
52878;SDS011;38747;53.140;6.498;2023-10-09T04:18:52;22.00;;;9.10;;
52878;SDS011;38747;53.140;6.498;2023-10-09T04:21:21;23.67;;;9.57;;
52878;SDS011;38747;53.140;6.498;2023-10-09T04:23:59;22.20;;;8.95;;
52878;SDS011;38747;53.140;6.498;2023-10-09T04:26:35;23.33;;;9.02;;
52878;SDS011;38747;53.140;6.498;2023-10-09T04:29:02;20.93;;;8.63;;
52878;SDS011;38747;53.140;6.498;2023-10-09T04:31:28;20.67;;;8.65;;
52878;SDS011;38747;53.140;6.498;2023-10-09T04:34:02;22.30;;;9.25;;
52878;SDS011;38747;53.140;6.498;2023-10-09T04:36:47;25.52;;;9.20;;
52878;SDS011;38747;53.140;6.498;2023-10-09T04:39:21;22.88;;;9.57;;
52878;SDS011;38747;53.140;6.498;2023-10-09T04:41:56;22.97;;;9.17;;
52878;SDS011;38747;53.140;6.498;2023-10-09T04:44:41;21.25;;;9.05;;
52878;SDS011;38747;53.140;6.498;2023-10-09T04:47:28;25.02;;;9.13;;
52878;SDS011;38747;53.140;6.498;2023-10-09T04:50:04;23.85;;;9.25;;
52878;SDS011;38747;53.140;6.498;2023-10-09T04:52:36;22.50;;;9.70;;
52878;SDS011;38747;53.140;6.498;2023-10-09T04:55:02;23.33;;;9.30;;
52878;SDS011;38747;53.140;6.498;2023-10-09T04:57:37;25.20;;;9.35;;
52878;SDS011;38747;53.140;6.498;2023-10-09T05:00:07;25.08;;;9.63;;
52878;SDS011;38747;53.140;6.498;2023-10-09T05:02:53;24.33;;;9.52;;
52878;SDS011;38747;53.140;6.498;2023-10-09T05:05:23;24.47;;;9.50;;
52878;SDS011;38747;53.140;6.498;2023-10-09T05:10:52;23.73;;;9.30;;
52878;SDS011;38747;53.140;6.498;2023-10-09T05:13:22;22.67;;;9.07;;
52878;SDS011;38747;53.140;6.498;2023-10-09T05:16:06;20.10;;;8.95;;
52878;SDS011;38747;53.140;6.498;2023-10-09T05:18:52;22.30;;;8.83;;
52878;SDS011;38747;53.140;6.498;2023-10-09T05:21:22;20.38;;;8.32;;
52878;SDS011;38747;53.140;6.498;2023-10-09T05:23:55;20.88;;;8.23;;
52878;SDS011;38747;53.140;6.498;2023-10-09T05:26:36;21.95;;;8.50;;
52878;SDS011;38747;53.140;6.498;2023-10-09T05:31:45;17.33;;;7.47;;
52878;SDS011;38747;53.140;6.498;2023-10-09T05:34:22;18.88;;;8.50;;
52878;SDS011;38747;53.140;6.498;2023-10-09T05:36:49;22.75;;;8.10;;
52878;SDS011;38747;53.140;6.498;2023-10-09T05:39:14;17.77;;;7.35;;
52878;SDS011;38747;53.140;6.498;2023-10-09T05:41:47;18.98;;;7.50;;
52878;SDS011;38747;53.140;6.498;2023-10-09T05:44:17;21.80;;;7.43;;
52878;SDS011;38747;53.140;6.498;2023-10-09T05:47:02;18.98;;;7.25;;
52878;SDS011;38747;53.140;6.498;2023-10-09T05:49:47;17.38;;;6.55;;
52878;SDS011;38747;53.140;6.498;2023-10-09T05:52:21;17.27;;;5.70;;
52878;SDS011;38747;53.140;6.498;2023-10-09T05:55:05;17.10;;;6.55;;
52878;SDS011;38747;53.140;6.498;2023-10-09T05:57:49;14.13;;;5.67;;
52878;SDS011;38747;53.140;6.498;2023-10-09T06:00:33;15.75;;;5.88;;
52878;SDS011;38747;53.140;6.498;2023-10-09T06:03:18;15.13;;;5.85;;
52878;SDS011;38747;53.140;6.498;2023-10-09T06:05:44;13.80;;;5.63;;
52878;SDS011;38747;53.140;6.498;2023-10-09T06:08:27;15.77;;;5.80;;
52878;SDS011;38747;53.140;6.498;2023-10-09T06:11:07;15.50;;;5.80;;
52878;SDS011;38747;53.140;6.498;2023-10-09T06:13:56;13.60;;;5.53;;
52878;SDS011;38747;53.140;6.498;2023-10-09T06:16:35;13.90;;;5.70;;
52878;SDS011;38747;53.140;6.498;2023-10-09T06:19:11;12.93;;;5.43;;
52878;SDS011;38747;53.140;6.498;2023-10-09T06:21:51;13.83;;;4.97;;
52878;SDS011;38747;53.140;6.498;2023-10-09T06:24:39;13.50;;;4.55;;
52878;SDS011;38747;53.140;6.498;2023-10-09T06:27:17;17.63;;;5.07;;
52878;SDS011;38747;53.140;6.498;2023-10-09T06:29:55;16.13;;;5.50;;
52878;SDS011;38747;53.140;6.498;2023-10-09T06:32:40;14.35;;;5.28;;
52878;SDS011;38747;53.140;6.498;2023-10-09T06:35:20;16.07;;;5.03;;
52878;SDS011;38747;53.140;6.498;2023-10-09T06:37:55;13.98;;;4.82;;
52878;SDS011;38747;53.140;6.498;2023-10-09T06:40:26;12.10;;;4.85;;
52878;SDS011;38747;53.140;6.498;2023-10-09T06:43:13;14.80;;;4.82;;
52878;SDS011;38747;53.140;6.498;2023-10-09T06:45:45;12.80;;;4.60;;
52878;SDS011;38747;53.140;6.498;2023-10-09T06:48:12;13.30;;;4.77;;
52878;SDS011;38747;53.140;6.498;2023-10-09T06:51:03;11.60;;;5.05;;
52878;SDS011;38747;53.140;6.498;2023-10-09T06:53:32;14.23;;;5.10;;
52878;SDS011;38747;53.140;6.498;2023-10-09T06:56:17;10.88;;;4.15;;
52878;SDS011;38747;53.140;6.498;2023-10-09T06:58:55;11.25;;;4.82;;
52878;SDS011;38747;53.140;6.498;2023-10-09T07:01:26;12.50;;;4.77;;
52878;SDS011;38747;53.140;6.498;2023-10-09T07:04:04;16.10;;;5.10;;
52878;SDS011;38747;53.140;6.498;2023-10-09T07:06:46;13.40;;;4.55;;
52878;SDS011;38747;53.140;6.498;2023-10-09T07:09:14;13.65;;;4.53;;
52878;SDS011;38747;53.140;6.498;2023-10-09T07:11:43;13.95;;;4.50;;
52878;SDS011;38747;53.140;6.498;2023-10-09T07:17:07;12.98;;;4.68;;
52878;SDS011;38747;53.140;6.498;2023-10-09T07:20:09;12.85;;;4.97;;
52878;SDS011;38747;53.140;6.498;2023-10-09T07:22:39;14.13;;;4.68;;
52878;SDS011;38747;53.140;6.498;2023-10-09T07:25:18;12.90;;;5.00;;
52878;SDS011;38747;53.140;6.498;2023-10-09T07:28:06;12.83;;;5.77;;
52878;SDS011;38747;53.140;6.498;2023-10-09T07:30:46;11.40;;;4.80;;
52878;SDS011;38747;53.140;6.498;2023-10-09T07:33:12;13.70;;;4.70;;
52878;SDS011;38747;53.140;6.498;2023-10-09T07:35:39;13.57;;;4.43;;
52878;SDS011;38747;53.140;6.498;2023-10-09T07:38:06;13.47;;;4.77;;
52878;SDS011;38747;53.140;6.498;2023-10-09T07:40:35;14.77;;;4.72;;
52878;SDS011;38747;53.140;6.498;2023-10-09T07:43:20;14.93;;;5.30;;
52878;SDS011;38747;53.140;6.498;2023-10-09T07:45:51;15.18;;;4.88;;
52878;SDS011;38747;53.140;6.498;2023-10-09T07:48:23;14.88;;;5.10;;
52878;SDS011;38747;53.140;6.498;2023-10-09T07:50:51;13.27;;;4.87;;
52878;SDS011;38747;53.140;6.498;2023-10-09T07:53:22;15.55;;;4.88;;
52878;SDS011;38747;53.140;6.498;2023-10-09T07:55:55;9.63;;;4.45;;
52878;SDS011;38747;53.140;6.498;2023-10-09T07:58:26;11.27;;;4.63;;
52878;SDS011;38747;53.140;6.498;2023-10-09T08:00:54;11.43;;;4.57;;
52878;SDS011;38747;53.140;6.498;2023-10-09T08:03:26;15.13;;;4.57;;
52878;SDS011;38747;53.140;6.498;2023-10-09T08:05:57;12.85;;;4.60;;
52878;SDS011;38747;53.140;6.498;2023-10-09T08:08:43;14.15;;;5.07;;
52878;SDS011;38747;53.140;6.498;2023-10-09T08:11:29;11.90;;;4.70;;
52878;SDS011;38747;53.140;6.498;2023-10-09T08:14:04;15.48;;;4.75;;
52878;SDS011;38747;53.140;6.498;2023-10-09T08:16:46;16.53;;;4.60;;
52878;SDS011;38747;53.140;6.498;2023-10-09T08:19:12;14.43;;;4.60;;
52878;SDS011;38747;53.140;6.498;2023-10-09T08:21:56;13.35;;;4.32;;
52878;SDS011;38747;53.140;6.498;2023-10-09T08:24:40;14.57;;;5.18;;
52878;SDS011;38747;53.140;6.498;2023-10-09T08:27:14;15.38;;;4.65;;
52878;SDS011;38747;53.140;6.498;2023-10-09T08:30:06;12.23;;;4.57;;
52878;SDS011;38747;53.140;6.498;2023-10-09T08:32:45;10.88;;;4.43;;
52878;SDS011;38747;53.140;6.498;2023-10-09T08:35:34;13.45;;;4.32;;
52878;SDS011;38747;53.140;6.498;2023-10-09T08:38:15;12.25;;;4.25;;
52878;SDS011;38747;53.140;6.498;2023-10-09T08:40:48;15.75;;;4.07;;
52878;SDS011;38747;53.140;6.498;2023-10-09T08:43:19;13.53;;;4.37;;
52878;SDS011;38747;53.140;6.498;2023-10-09T08:45:46;12.73;;;3.90;;
52878;SDS011;38747;53.140;6.498;2023-10-09T08:48:20;14.20;;;4.47;;
52878;SDS011;38747;53.140;6.498;2023-10-09T08:50:47;11.57;;;3.92;;
52878;SDS011;38747;53.140;6.498;2023-10-09T08:53:23;14.15;;;4.25;;
52878;SDS011;38747;53.140;6.498;2023-10-09T08:55:49;12.90;;;4.50;;
52878;SDS011;38747;53.140;6.498;2023-10-09T08:58:16;12.95;;;4.28;;
52878;SDS011;38747;53.140;6.498;2023-10-09T09:00:50;14.15;;;4.30;;
52878;SDS011;38747;53.140;6.498;2023-10-09T09:03:17;13.77;;;4.85;;
52878;SDS011;38747;53.140;6.498;2023-10-09T09:05:47;13.25;;;4.68;;
52878;SDS011;38747;53.140;6.498;2023-10-09T09:08:35;14.67;;;5.00;;
52878;SDS011;38747;53.140;6.498;2023-10-09T09:11:07;11.52;;;4.18;;
52878;SDS011;38747;53.140;6.498;2023-10-09T09:13:38;14.82;;;4.40;;
52878;SDS011;38747;53.140;6.498;2023-10-09T09:16:12;10.98;;;4.55;;
52878;SDS011;38747;53.140;6.498;2023-10-09T09:21:28;14.00;;;4.20;;
52878;SDS011;38747;53.140;6.498;2023-10-09T09:23:58;13.27;;;4.38;;
52878;SDS011;38747;53.140;6.498;2023-10-09T09:26:36;13.10;;;4.65;;
52878;SDS011;38747;53.140;6.498;2023-10-09T09:29:06;13.70;;;4.63;;
52878;SDS011;38747;53.140;6.498;2023-10-09T09:31:35;14.15;;;4.32;;
52878;SDS011;38747;53.140;6.498;2023-10-09T09:34:04;12.50;;;4.30;;
52878;SDS011;38747;53.140;6.498;2023-10-09T09:36:48;15.32;;;4.35;;
52878;SDS011;38747;53.140;6.498;2023-10-09T09:39:20;13.82;;;4.30;;
52878;SDS011;38747;53.140;6.498;2023-10-09T09:41:54;14.20;;;4.63;;
52878;SDS011;38747;53.140;6.498;2023-10-09T09:44:33;10.48;;;4.13;;
52878;SDS011;38747;53.140;6.498;2023-10-09T09:47:08;11.87;;;4.10;;
52878;SDS011;38747;53.140;6.498;2023-10-09T09:49:38;11.98;;;4.25;;
52878;SDS011;38747;53.140;6.498;2023-10-09T09:52:08;13.18;;;5.05;;
52878;SDS011;38747;53.140;6.498;2023-10-09T09:54:37;13.05;;;4.43;;
52878;SDS011;38747;53.140;6.498;2023-10-09T09:57:04;11.40;;;3.78;;
52878;SDS011;38747;53.140;6.498;2023-10-09T09:59:37;12.13;;;4.43;;
52878;SDS011;38747;53.140;6.498;2023-10-09T10:02:16;12.43;;;4.03;;
52878;SDS011;38747;53.140;6.498;2023-10-09T10:04:47;10.57;;;3.88;;
52878;SDS011;38747;53.140;6.498;2023-10-09T10:07:19;9.73;;;3.50;;
52878;SDS011;38747;53.140;6.498;2023-10-09T10:09:47;9.15;;;3.33;;
52878;SDS011;38747;53.140;6.498;2023-10-09T10:15:21;9.65;;;3.33;;
52878;SDS011;38747;53.140;6.498;2023-10-09T10:20:24;11.65;;;4.18;;
52878;SDS011;38747;53.140;6.498;2023-10-09T10:22:51;12.17;;;3.10;;
52878;SDS011;38747;53.140;6.498;2023-10-09T10:25:37;10.93;;;3.53;;
52878;SDS011;38747;53.140;6.498;2023-10-09T10:28:23;10.63;;;3.42;;
52878;SDS011;38747;53.140;6.498;2023-10-09T10:31:09;9.93;;;3.30;;
52878;SDS011;38747;53.140;6.498;2023-10-09T10:36:23;10.47;;;3.20;;
52878;SDS011;38747;53.140;6.498;2023-10-09T10:41:36;8.77;;;2.67;;
52878;SDS011;38747;53.140;6.498;2023-10-09T10:44:26;9.82;;;2.97;;
52878;SDS011;38747;53.140;6.498;2023-10-09T10:47:01;10.80;;;3.25;;
52878;SDS011;38747;53.140;6.498;2023-10-09T10:49:27;10.73;;;3.30;;
52878;SDS011;38747;53.140;6.498;2023-10-09T10:52:03;10.23;;;3.58;;
52878;SDS011;38747;53.140;6.498;2023-10-09T10:54:42;14.05;;;3.10;;
52878;SDS011;38747;53.140;6.498;2023-10-09T10:57:20;8.00;;;2.97;;
52878;SDS011;38747;53.140;6.498;2023-10-09T11:00:09;11.85;;;3.60;;
52878;SDS011;38747;53.140;6.498;2023-10-09T11:03:08;12.23;;;3.43;;
52878;SDS011;38747;53.140;6.498;2023-10-09T11:05:42;12.05;;;3.72;;
52878;SDS011;38747;53.140;6.498;2023-10-09T11:08:15;8.73;;;3.03;;
52878;SDS011;38747;53.140;6.498;2023-10-09T11:10:47;10.88;;;3.30;;
52878;SDS011;38747;53.140;6.498;2023-10-09T11:13:25;14.55;;;3.20;;
52878;SDS011;38747;53.140;6.498;2023-10-09T11:16:00;8.37;;;2.67;;
52878;SDS011;38747;53.140;6.498;2023-10-09T11:18:41;11.80;;;3.45;;
52878;SDS011;38747;53.140;6.498;2023-10-09T11:21:13;12.70;;;3.35;;
52878;SDS011;38747;53.140;6.498;2023-10-09T11:23:40;12.52;;;3.50;;
52878;SDS011;38747;53.140;6.498;2023-10-09T11:26:33;9.43;;;2.92;;
52878;SDS011;38747;53.140;6.498;2023-10-09T11:34:34;9.07;;;2.70;;
52878;SDS011;38747;53.140;6.498;2023-10-09T11:37:02;11.38;;;3.00;;
52878;SDS011;38747;53.140;6.498;2023-10-09T11:39:37;13.13;;;3.28;;
52878;SDS011;38747;53.140;6.498;2023-10-09T11:42:19;7.70;;;2.20;;
52878;SDS011;38747;53.140;6.498;2023-10-09T11:45:07;9.70;;;3.05;;
52878;SDS011;38747;53.140;6.498;2023-10-09T11:47:53;11.68;;;3.10;;
52878;SDS011;38747;53.140;6.498;2023-10-09T11:53:15;8.13;;;2.15;;
52878;SDS011;38747;53.140;6.498;2023-10-09T11:55:47;11.67;;;2.70;;
52878;SDS011;38747;53.140;6.498;2023-10-09T11:58:21;10.75;;;2.50;;
52878;SDS011;38747;53.140;6.498;2023-10-09T12:00:50;7.70;;;2.20;;
52878;SDS011;38747;53.140;6.498;2023-10-09T12:03:16;10.38;;;2.10;;
52878;SDS011;38747;53.140;6.498;2023-10-09T12:05:47;8.65;;;2.25;;
52878;SDS011;38747;53.140;6.498;2023-10-09T12:08:12;9.60;;;2.03;;
52878;SDS011;38747;53.140;6.498;2023-10-09T12:10:41;7.07;;;2.03;;
52878;SDS011;38747;53.140;6.498;2023-10-09T12:13:07;7.47;;;1.92;;
52878;SDS011;38747;53.140;6.498;2023-10-09T12:15:33;8.50;;;2.25;;
52878;SDS011;38747;53.140;6.498;2023-10-09T12:18:05;8.90;;;2.40;;
52878;SDS011;38747;53.140;6.498;2023-10-09T12:20:34;10.85;;;2.17;;
52878;SDS011;38747;53.140;6.498;2023-10-09T12:23:00;7.30;;;2.00;;
52878;SDS011;38747;53.140;6.498;2023-10-09T12:25:30;9.48;;;1.90;;
52878;SDS011;38747;53.140;6.498;2023-10-09T12:28:00;10.38;;;2.65;;
52878;SDS011;38747;53.140;6.498;2023-10-09T12:30:30;6.17;;;1.90;;
52878;SDS011;38747;53.140;6.498;2023-10-09T12:32:56;9.82;;;1.90;;
52878;SDS011;38747;53.140;6.498;2023-10-09T12:35:26;7.22;;;1.85;;
52878;SDS011;38747;53.140;6.498;2023-10-09T12:37:53;8.57;;;2.10;;
52878;SDS011;38747;53.140;6.498;2023-10-09T12:40:23;8.63;;;1.70;;
52878;SDS011;38747;53.140;6.498;2023-10-09T12:42:52;5.20;;;1.70;;
52878;SDS011;38747;53.140;6.498;2023-10-09T12:45:18;3.95;;;1.50;;
52878;SDS011;38747;53.140;6.498;2023-10-09T12:47:51;5.75;;;1.60;;
52878;SDS011;38747;53.140;6.498;2023-10-09T12:50:18;6.20;;;1.80;;
52878;SDS011;38747;53.140;6.498;2023-10-09T12:52:53;5.45;;;1.40;;
52878;SDS011;38747;53.140;6.498;2023-10-09T12:55:21;4.53;;;1.50;;
52878;SDS011;38747;53.140;6.498;2023-10-09T12:57:56;6.03;;;1.48;;
52878;SDS011;38747;53.140;6.498;2023-10-09T13:00:32;6.47;;;1.50;;
52878;SDS011;38747;53.140;6.498;2023-10-09T13:03:19;6.43;;;1.45;;
52878;SDS011;38747;53.140;6.498;2023-10-09T13:08:23;6.00;;;1.90;;
52878;SDS011;38747;53.140;6.498;2023-10-09T13:10:56;6.50;;;1.50;;
52878;SDS011;38747;53.140;6.498;2023-10-09T13:13:29;5.13;;;1.45;;
52878;SDS011;38747;53.140;6.498;2023-10-09T13:16:06;5.93;;;1.70;;
52878;SDS011;38747;53.140;6.498;2023-10-09T13:18:42;5.35;;;1.30;;
52878;SDS011;38747;53.140;6.498;2023-10-09T13:21:15;5.43;;;1.40;;
52878;SDS011;38747;53.140;6.498;2023-10-09T13:23:45;10.77;;;1.52;;
52878;SDS011;38747;53.140;6.498;2023-10-09T13:26:19;6.95;;;1.55;;
52878;SDS011;38747;53.140;6.498;2023-10-09T13:28:54;4.97;;;1.88;;
52878;SDS011;38747;53.140;6.498;2023-10-09T13:31:21;5.90;;;1.55;;
52878;SDS011;38747;53.140;6.498;2023-10-09T13:33:50;5.80;;;1.47;;
52878;SDS011;38747;53.140;6.498;2023-10-09T13:36:20;5.43;;;1.50;;
52878;SDS011;38747;53.140;6.498;2023-10-09T13:38:57;5.78;;;1.63;;
52878;SDS011;38747;53.140;6.498;2023-10-09T13:41:45;5.35;;;1.50;;
52878;SDS011;38747;53.140;6.498;2023-10-09T13:44:14;6.25;;;2.00;;
52878;SDS011;38747;53.140;6.498;2023-10-09T13:46:40;7.93;;;1.97;;
52878;SDS011;38747;53.140;6.498;2023-10-09T13:49:07;6.72;;;1.60;;
52878;SDS011;38747;53.140;6.498;2023-10-09T13:51:40;6.90;;;1.60;;
52878;SDS011;38747;53.140;6.498;2023-10-09T13:54:13;6.57;;;1.60;;
52878;SDS011;38747;53.140;6.498;2023-10-09T13:56:45;6.88;;;1.80;;
52878;SDS011;38747;53.140;6.498;2023-10-09T13:59:10;8.47;;;2.00;;
52878;SDS011;38747;53.140;6.498;2023-10-09T14:01:36;8.33;;;1.80;;
52878;SDS011;38747;53.140;6.498;2023-10-09T14:04:04;4.97;;;1.80;;
52878;SDS011;38747;53.140;6.498;2023-10-09T14:06:33;6.80;;;1.60;;
52878;SDS011;38747;53.140;6.498;2023-10-09T14:09:03;6.82;;;2.00;;
52878;SDS011;38747;53.140;6.498;2023-10-09T14:11:34;6.55;;;1.70;;
52878;SDS011;38747;53.140;6.498;2023-10-09T14:14:04;4.63;;;1.70;;
52878;SDS011;38747;53.140;6.498;2023-10-09T14:16:37;5.68;;;1.60;;
52878;SDS011;38747;53.140;6.498;2023-10-09T14:19:08;6.47;;;1.70;;
52878;SDS011;38747;53.140;6.498;2023-10-09T14:21:38;5.72;;;1.70;;
52878;SDS011;38747;53.140;6.498;2023-10-09T14:24:05;7.22;;;1.42;;
52878;SDS011;38747;53.140;6.498;2023-10-09T14:26:43;6.47;;;1.60;;
52878;SDS011;38747;53.140;6.498;2023-10-09T14:29:16;5.93;;;1.50;;
52878;SDS011;38747;53.140;6.498;2023-10-09T14:31:43;7.07;;;1.33;;
52878;SDS011;38747;53.140;6.498;2023-10-09T14:34:14;8.07;;;1.55;;
52878;SDS011;38747;53.140;6.498;2023-10-09T14:36:39;7.60;;;1.70;;
52878;SDS011;38747;53.140;6.498;2023-10-09T14:39:09;6.82;;;1.40;;
52878;SDS011;38747;53.140;6.498;2023-10-09T14:41:38;5.90;;;1.73;;
52878;SDS011;38747;53.140;6.498;2023-10-09T14:44:05;9.13;;;1.67;;
52878;SDS011;38747;53.140;6.498;2023-10-09T14:46:31;5.70;;;1.50;;
52878;SDS011;38747;53.140;6.498;2023-10-09T14:48:56;6.00;;;1.50;;
52878;SDS011;38747;53.140;6.498;2023-10-09T14:51:22;5.30;;;1.67;;
52878;SDS011;38747;53.140;6.498;2023-10-09T14:53:55;6.20;;;1.90;;
52878;SDS011;38747;53.140;6.498;2023-10-09T14:56:26;5.10;;;1.30;;
52878;SDS011;38747;53.140;6.498;2023-10-09T14:58:56;6.70;;;1.60;;
52878;SDS011;38747;53.140;6.498;2023-10-09T15:01:23;6.43;;;1.40;;
52878;SDS011;38747;53.140;6.498;2023-10-09T15:03:50;4.70;;;1.45;;
52878;SDS011;38747;53.140;6.498;2023-10-09T15:06:20;6.75;;;1.40;;
52878;SDS011;38747;53.140;6.498;2023-10-09T15:08:46;7.57;;;1.70;;
52878;SDS011;38747;53.140;6.498;2023-10-09T15:11:12;6.35;;;1.52;;
52878;SDS011;38747;53.140;6.498;2023-10-09T15:13:39;5.88;;;1.70;;
52878;SDS011;38747;53.140;6.498;2023-10-09T15:16:05;6.07;;;1.90;;
52878;SDS011;38747;53.140;6.498;2023-10-09T15:18:31;8.43;;;1.45;;
52878;SDS011;38747;53.140;6.498;2023-10-09T15:20:58;7.57;;;2.20;;
52878;SDS011;38747;53.140;6.498;2023-10-09T15:23:24;8.37;;;1.73;;
52878;SDS011;38747;53.140;6.498;2023-10-09T15:25:50;7.97;;;1.77;;
52878;SDS011;38747;53.140;6.498;2023-10-09T15:28:18;6.30;;;1.55;;
52878;SDS011;38747;53.140;6.498;2023-10-09T15:30:44;6.43;;;1.73;;
52878;SDS011;38747;53.140;6.498;2023-10-09T15:33:13;6.00;;;1.58;;
52878;SDS011;38747;53.140;6.498;2023-10-09T15:35:42;6.83;;;1.53;;
52878;SDS011;38747;53.140;6.498;2023-10-09T15:38:11;6.07;;;1.50;;
52878;SDS011;38747;53.140;6.498;2023-10-09T15:40:39;7.32;;;1.60;;
52878;SDS011;38747;53.140;6.498;2023-10-09T15:43:07;4.50;;;1.60;;
52878;SDS011;38747;53.140;6.498;2023-10-09T15:45:40;5.82;;;1.60;;